createdAt,value
2022-12-17T00:00:06.608Z,1015.72
2022-12-17T00:01:06.602Z,1015.68
2022-12-17T00:02:06.564Z,1015.70
2022-12-17T00:03:06.712Z,1015.71
2022-12-17T00:04:06.659Z,1015.76
2022-12-17T00:05:06.539Z,1015.74
2022-12-17T00:06:06.534Z,1015.78
2022-12-17T00:07:06.531Z,1015.80
2022-12-17T00:08:06.531Z,1015.80
2022-12-17T00:09:06.546Z,1015.79
2022-12-17T00:10:06.540Z,1015.82
2022-12-17T00:11:06.536Z,1015.84
2022-12-17T00:12:06.532Z,1015.84
2022-12-17T00:13:06.532Z,1015.88
2022-12-17T00:14:06.537Z,1015.90
2022-12-17T00:15:06.534Z,1015.95
2022-12-17T00:16:06.593Z,1015.93
2022-12-17T00:17:06.534Z,1015.91
2022-12-17T00:18:06.575Z,1015.91
2022-12-17T00:19:06.541Z,1015.86
2022-12-17T00:20:06.542Z,1015.93
2022-12-17T00:21:06.543Z,1015.96
2022-12-17T00:22:06.544Z,1015.93
2022-12-17T00:23:06.542Z,1015.91
2022-12-17T00:24:06.538Z,1015.92
2022-12-17T00:25:06.538Z,1015.93
2022-12-17T00:26:06.536Z,1015.92
2022-12-17T00:27:06.544Z,1015.94
2022-12-17T00:28:06.546Z,1016.00
2022-12-17T00:29:06.535Z,1015.97
2022-12-17T00:30:06.544Z,1016.02
2022-12-17T00:31:06.598Z,1016.00
2022-12-17T00:32:06.540Z,1016.05
2022-12-17T00:33:06.540Z,1016.05
2022-12-17T00:34:06.678Z,1016.08
2022-12-17T00:35:06.545Z,1016.08
2022-12-17T00:36:06.542Z,1016.15
2022-12-17T00:37:06.537Z,1016.12
2022-12-17T00:38:06.540Z,1016.07
2022-12-17T00:39:06.538Z,1016.07
2022-12-17T00:40:06.547Z,1016.14
2022-12-17T00:41:06.538Z,1016.15
2022-12-17T00:42:06.535Z,1016.14
2022-12-17T00:43:06.547Z,1016.18
2022-12-17T00:44:06.542Z,1016.15
2022-12-17T00:45:06.537Z,1016.14
2022-12-17T00:46:06.535Z,1016.16
2022-12-17T00:47:06.622Z,1016.18
2022-12-17T00:48:06.534Z,1016.17
2022-12-17T00:49:06.536Z,1016.18
2022-12-17T00:50:06.561Z,1016.19
2022-12-17T00:51:06.536Z,1016.19
2022-12-17T00:52:06.537Z,1016.22
2022-12-17T00:53:06.539Z,1016.15
2022-12-17T00:54:06.538Z,1016.21
2022-12-17T00:55:06.535Z,1016.16
2022-12-17T00:56:06.543Z,1016.18
2022-12-17T00:57:06.535Z,1016.23
2022-12-17T00:58:06.537Z,1016.22
2022-12-17T00:59:06.543Z,1016.20
2022-12-17T01:00:06.540Z,1016.23
2022-12-17T01:01:06.661Z,1016.24
2022-12-17T01:02:06.674Z,1016.26
2022-12-17T01:03:06.592Z,1016.24
2022-12-17T01:04:06.545Z,1016.27
2022-12-17T01:05:06.537Z,1016.28
2022-12-17T01:06:06.564Z,1016.30
2022-12-17T01:07:06.536Z,1016.27
2022-12-17T01:08:06.537Z,1016.33
2022-12-17T01:09:06.547Z,1016.27
2022-12-17T01:10:06.539Z,1016.28
2022-12-17T01:11:06.545Z,1016.29
2022-12-17T01:12:06.538Z,1016.26
2022-12-17T01:13:06.546Z,1016.29
2022-12-17T01:14:06.549Z,1016.28
2022-12-17T01:15:06.539Z,1016.25
2022-12-17T01:16:06.641Z,1016.25
2022-12-17T01:17:06.547Z,1016.22
2022-12-17T01:18:06.546Z,1016.21
2022-12-17T01:19:06.546Z,1016.23
2022-12-17T01:20:06.545Z,1016.19
2022-12-17T01:21:06.541Z,1016.20
2022-12-17T01:22:06.564Z,1016.20
2022-12-17T01:23:06.539Z,1016.23
2022-12-17T01:24:06.536Z,1016.29
2022-12-17T01:25:06.545Z,1016.31
2022-12-17T01:26:06.538Z,1016.32
2022-12-17T01:27:06.543Z,1016.28
2022-12-17T01:28:06.537Z,1016.28
2022-12-17T01:29:06.544Z,1016.28
2022-12-17T01:30:06.539Z,1016.33
2022-12-17T01:31:06.605Z,1016.33
2022-12-17T01:32:06.619Z,1016.35
2022-12-17T01:33:06.536Z,1016.35
2022-12-17T01:34:06.539Z,1016.34
2022-12-17T01:35:06.543Z,1016.32
2022-12-17T01:36:06.538Z,1016.37
2022-12-17T01:37:06.539Z,1016.35
2022-12-17T01:38:06.558Z,1016.34
2022-12-17T01:39:06.534Z,1016.35
2022-12-17T01:40:06.536Z,1016.35
2022-12-17T01:41:06.535Z,1016.40
2022-12-17T01:42:06.542Z,1016.44
2022-12-17T01:43:06.538Z,1016.47
2022-12-17T01:44:06.535Z,1016.49
2022-12-17T01:45:06.544Z,1016.46
2022-12-17T01:46:06.647Z,1016.49
2022-12-17T01:47:06.543Z,1016.51
2022-12-17T01:48:06.535Z,1016.50
2022-12-17T01:49:06.552Z,1016.54
2022-12-17T01:50:06.534Z,1016.56
2022-12-17T01:51:06.542Z,1016.56
2022-12-17T01:52:06.535Z,1016.60
2022-12-17T01:53:06.540Z,1016.61
2022-12-17T01:54:06.558Z,1016.61
2022-12-17T01:55:06.542Z,1016.62
2022-12-17T01:56:06.542Z,1016.62
2022-12-17T01:57:06.541Z,1016.64
2022-12-17T01:58:06.534Z,1016.69
2022-12-17T01:59:06.533Z,1016.65
2022-12-17T02:00:06.546Z,1016.65
2022-12-17T02:01:06.588Z,1016.65
2022-12-17T02:02:06.800Z,1016.63
2022-12-17T02:03:06.608Z,1016.64
2022-12-17T02:04:06.532Z,1016.65
2022-12-17T02:05:06.541Z,1016.63
2022-12-17T02:06:06.531Z,1016.65
2022-12-17T02:07:06.591Z,1016.68
2022-12-17T02:08:06.538Z,1016.63
2022-12-17T02:09:06.538Z,1016.67
2022-12-17T02:10:06.552Z,1016.65
2022-12-17T02:11:06.536Z,1016.68
2022-12-17T02:12:06.531Z,1016.66
2022-12-17T02:13:06.529Z,1016.67
2022-12-17T02:14:06.535Z,1016.66
2022-12-17T02:15:06.528Z,1016.67
2022-12-17T02:16:06.576Z,1016.70
2022-12-17T02:17:06.528Z,1016.68
2022-12-17T02:18:06.525Z,1016.66
2022-12-17T02:19:06.534Z,1016.65
2022-12-17T02:20:06.525Z,1016.62
2022-12-17T02:21:06.527Z,1016.63
2022-12-17T02:22:06.534Z,1016.62
2022-12-17T02:23:06.527Z,1016.61
2022-12-17T02:24:06.531Z,1016.59
2022-12-17T02:25:06.532Z,1016.66
2022-12-17T02:26:06.558Z,1016.70
2022-12-17T02:27:06.524Z,1016.67
2022-12-17T02:28:06.524Z,1016.72
2022-12-17T02:29:06.531Z,1016.69
2022-12-17T02:30:06.535Z,1016.68
2022-12-17T02:31:06.522Z,1016.72
2022-12-17T02:32:06.662Z,1016.69
2022-12-17T02:33:06.522Z,1016.71
2022-12-17T02:34:06.531Z,1016.64
2022-12-17T02:35:06.524Z,1016.64
2022-12-17T02:36:06.530Z,1016.66
2022-12-17T02:37:06.523Z,1016.62
2022-12-17T02:38:06.531Z,1016.60
2022-12-17T02:39:06.520Z,1016.63
2022-12-17T02:40:06.529Z,1016.63
2022-12-17T02:41:06.520Z,1016.63
2022-12-17T02:42:06.545Z,1016.62
2022-12-17T02:43:06.520Z,1016.64
2022-12-17T02:44:06.518Z,1016.65
2022-12-17T02:45:06.527Z,1016.71
2022-12-17T02:46:06.564Z,1016.75
2022-12-17T02:47:06.521Z,1016.76
2022-12-17T02:48:06.518Z,1016.75
2022-12-17T02:49:06.527Z,1016.75
2022-12-17T02:50:06.517Z,1016.77
2022-12-17T02:51:06.519Z,1016.86
2022-12-17T02:52:06.525Z,1016.88
2022-12-17T02:53:06.518Z,1016.88
2022-12-17T02:54:06.523Z,1016.89
2022-12-17T02:55:06.518Z,1016.86
2022-12-17T02:56:06.525Z,1016.91
2022-12-17T02:57:06.525Z,1016.96
2022-12-17T02:58:06.550Z,1016.95
2022-12-17T02:59:06.522Z,1016.97
2022-12-17T03:00:06.515Z,1016.95
2022-12-17T03:01:06.595Z,1017.00
2022-12-17T03:02:06.669Z,1017.08
2022-12-17T03:03:06.605Z,1017.03
2022-12-17T03:04:06.521Z,1017.00
2022-12-17T03:05:21.416Z,1017.05
2022-12-17T03:06:06.522Z,1017.06
2022-12-17T03:07:06.610Z,1017.11
2022-12-17T03:08:06.520Z,1017.13
2022-12-17T03:09:06.518Z,1017.15
2022-12-17T03:10:06.520Z,1017.18
2022-12-17T03:11:06.510Z,1017.16
2022-12-17T03:12:06.511Z,1017.16
2022-12-17T03:13:06.510Z,1017.17
2022-12-17T03:14:06.565Z,1017.15
2022-12-17T03:15:06.509Z,1017.12
2022-12-17T03:16:06.517Z,1017.05
2022-12-17T03:17:06.555Z,1017.18
2022-12-17T03:18:06.509Z,1017.17
2022-12-17T03:19:06.516Z,1017.21
2022-12-17T03:20:06.511Z,1017.20
2022-12-17T03:21:06.510Z,1017.18
2022-12-17T03:22:06.514Z,1017.15
2022-12-17T03:23:06.509Z,1017.15
2022-12-17T03:24:06.512Z,1017.21
2022-12-17T03:25:06.508Z,1017.22
2022-12-17T03:26:06.513Z,1017.21
2022-12-17T03:27:06.507Z,1017.28
2022-12-17T03:28:06.507Z,1017.21
2022-12-17T03:29:06.516Z,1017.21
2022-12-17T03:30:06.596Z,1017.21
2022-12-17T03:31:06.587Z,1017.21
2022-12-17T03:32:06.512Z,1017.17
2022-12-17T03:33:06.513Z,1017.18
2022-12-17T03:34:06.503Z,1017.19
2022-12-17T03:35:06.501Z,1017.17
2022-12-17T03:36:06.504Z,1017.23
2022-12-17T03:37:06.508Z,1017.19
2022-12-17T03:38:06.511Z,1017.19
2022-12-17T03:39:06.505Z,1017.25
2022-12-17T03:40:06.511Z,1017.26
2022-12-17T03:41:06.508Z,1017.28
2022-12-17T03:42:06.509Z,1017.32
2022-12-17T03:43:06.506Z,1017.32
2022-12-17T03:44:06.519Z,1017.33
2022-12-17T03:45:06.500Z,1017.31
2022-12-17T03:46:06.589Z,1017.34
2022-12-17T03:47:06.505Z,1017.29
2022-12-17T03:48:06.499Z,1017.29
2022-12-17T03:49:06.496Z,1017.27
2022-12-17T03:50:06.508Z,1017.27
2022-12-17T03:51:06.495Z,1017.30
2022-12-17T03:52:06.496Z,1017.32
2022-12-17T03:53:06.499Z,1017.32
2022-12-17T03:54:06.496Z,1017.33
2022-12-17T03:55:06.497Z,1017.33
2022-12-17T03:56:06.504Z,1017.33
2022-12-17T03:57:07.915Z,1017.34
2022-12-17T03:58:06.494Z,1017.36
2022-12-17T03:59:06.494Z,1017.34
2022-12-17T04:00:06.496Z,1017.35
2022-12-17T04:01:06.519Z,1017.34
2022-12-17T04:02:06.612Z,1017.36
2022-12-17T04:03:06.529Z,1017.35
2022-12-17T04:04:06.492Z,1017.40
2022-12-17T04:05:06.501Z,1017.42
2022-12-17T04:06:06.500Z,1017.43
2022-12-17T04:07:06.494Z,1017.40
2022-12-17T04:08:06.501Z,1017.43
2022-12-17T04:09:06.504Z,1017.40
2022-12-17T04:10:06.498Z,1017.40
2022-12-17T04:11:06.490Z,1017.47
2022-12-17T04:12:06.498Z,1017.50
2022-12-17T04:13:06.498Z,1017.46
2022-12-17T04:14:06.495Z,1017.46
2022-12-17T04:15:06.495Z,1017.50
2022-12-17T04:16:06.596Z,1017.50
2022-12-17T04:17:06.496Z,1017.50
2022-12-17T04:18:06.514Z,1017.55
2022-12-17T04:19:06.486Z,1017.50
2022-12-17T04:20:06.491Z,1017.56
2022-12-17T04:21:06.486Z,1017.55
2022-12-17T04:22:06.485Z,1017.59
2022-12-17T04:23:06.486Z,1017.59
2022-12-17T04:24:06.492Z,1017.52
2022-12-17T04:25:06.493Z,1017.53
2022-12-17T04:26:06.483Z,1017.58
2022-12-17T04:27:06.494Z,1017.57
2022-12-17T04:28:06.483Z,1017.54
2022-12-17T04:29:06.494Z,1017.63
2022-12-17T04:30:06.484Z,1017.68
2022-12-17T04:31:06.568Z,1017.60
2022-12-17T04:32:06.490Z,1017.46
2022-12-17T04:33:06.485Z,1017.50
2022-12-17T04:34:06.502Z,1017.58
2022-12-17T04:35:06.486Z,1017.57
2022-12-17T04:36:06.488Z,1017.55
2022-12-17T04:37:06.486Z,1017.53
2022-12-17T04:38:06.480Z,1017.56
2022-12-17T04:39:06.477Z,1017.51
2022-12-17T04:40:06.485Z,1017.53
2022-12-17T04:41:06.484Z,1017.52
2022-12-17T04:42:06.478Z,1017.55
2022-12-17T04:43:06.483Z,1017.53
2022-12-17T04:44:06.484Z,1017.49
2022-12-17T04:45:06.477Z,1017.43
2022-12-17T04:46:06.530Z,1017.45
2022-12-17T04:47:06.477Z,1017.43
2022-12-17T04:48:06.475Z,1017.45
2022-12-17T04:49:06.478Z,1017.44
2022-12-17T04:50:06.499Z,1017.43
2022-12-17T04:51:06.476Z,1017.56
2022-12-17T04:52:06.472Z,1017.78
2022-12-17T04:53:06.482Z,1017.86
2022-12-17T04:54:06.482Z,1017.83
2022-12-17T04:55:06.480Z,1017.87
2022-12-17T04:56:06.481Z,1017.82
2022-12-17T04:57:06.472Z,1017.88
2022-12-17T04:58:06.477Z,1017.88
2022-12-17T04:59:06.479Z,1017.87
2022-12-17T05:00:06.477Z,1017.88
2022-12-17T05:01:06.505Z,1018.03
2022-12-17T05:02:06.555Z,1018.06
2022-12-17T05:03:06.554Z,1018.04
2022-12-17T05:04:06.474Z,1018.07
2022-12-17T05:05:06.468Z,1018.04
2022-12-17T05:06:06.609Z,1018.14
2022-12-17T05:07:06.467Z,1018.13
2022-12-17T05:08:06.480Z,1018.14
2022-12-17T05:09:06.479Z,1018.14
2022-12-17T05:10:06.474Z,1018.14
2022-12-17T05:11:06.465Z,1018.18
2022-12-17T05:12:06.472Z,1018.21
2022-12-17T05:13:06.462Z,1018.22
2022-12-17T05:14:06.465Z,1018.23
2022-12-17T05:15:06.461Z,1018.26
2022-12-17T05:16:06.512Z,1018.29
2022-12-17T05:17:06.460Z,1018.32
2022-12-17T05:18:06.468Z,1018.30
2022-12-17T05:19:06.458Z,1018.30
2022-12-17T05:20:06.471Z,1018.31
2022-12-17T05:21:06.468Z,1018.29
2022-12-17T05:22:06.486Z,1018.26
2022-12-17T05:23:06.464Z,1018.24
2022-12-17T05:24:06.464Z,1018.27
2022-12-17T05:25:06.464Z,1018.28
2022-12-17T05:26:06.465Z,1018.31
2022-12-17T05:27:06.462Z,1018.30
2022-12-17T05:28:06.463Z,1018.31
2022-12-17T05:29:07.231Z,1018.29
2022-12-17T05:30:06.457Z,1018.37
2022-12-17T05:31:06.511Z,1018.29
2022-12-17T05:32:06.462Z,1018.30
2022-12-17T05:33:06.459Z,1018.28
2022-12-17T05:34:06.462Z,1018.33
2022-12-17T05:35:06.452Z,1018.34
2022-12-17T05:36:06.454Z,1018.36
2022-12-17T05:37:06.454Z,1018.35
2022-12-17T05:38:06.474Z,1018.35
2022-12-17T05:39:06.463Z,1018.40
2022-12-17T05:40:12.257Z,1018.40
2022-12-17T05:41:06.452Z,1018.47
2022-12-17T05:42:06.456Z,1018.42
2022-12-17T05:43:06.451Z,1018.39
2022-12-17T05:44:06.455Z,1018.40
2022-12-17T05:45:06.458Z,1018.38
2022-12-17T05:46:06.493Z,1018.44
2022-12-17T05:47:06.458Z,1018.47
2022-12-17T05:48:06.448Z,1018.47
2022-12-17T05:49:06.450Z,1018.51
2022-12-17T05:50:06.447Z,1018.54
2022-12-17T05:51:06.454Z,1018.52
2022-12-17T05:52:06.446Z,1018.55
2022-12-17T05:53:06.446Z,1018.52
2022-12-17T05:54:06.466Z,1018.53
2022-12-17T05:55:06.450Z,1018.54
2022-12-17T05:56:06.445Z,1018.58
2022-12-17T05:57:06.442Z,1018.56
2022-12-17T05:58:06.445Z,1018.56
2022-12-17T05:59:06.448Z,1018.55
2022-12-17T06:00:06.442Z,1018.52
2022-12-17T06:01:06.443Z,1018.52
2022-12-17T06:02:06.443Z,1018.53
2022-12-17T06:03:06.583Z,1018.54
2022-12-17T06:04:06.516Z,1018.54
2022-12-17T06:05:06.440Z,1018.60
2022-12-17T06:06:06.448Z,1018.59
2022-12-17T06:07:06.445Z,1018.59
2022-12-17T06:08:06.446Z,1018.65
2022-12-17T06:09:06.446Z,1018.62
2022-12-17T06:10:06.465Z,1018.63
2022-12-17T06:11:06.446Z,1018.67
2022-12-17T06:12:06.445Z,1018.64
2022-12-17T06:13:06.438Z,1018.70
2022-12-17T06:14:06.436Z,1018.69
2022-12-17T06:15:06.445Z,1018.74
2022-12-17T06:16:06.510Z,1018.72
2022-12-17T06:17:06.442Z,1018.71
2022-12-17T06:18:06.442Z,1018.71
2022-12-17T06:19:06.432Z,1018.74
2022-12-17T06:20:06.443Z,1018.78
2022-12-17T06:21:06.431Z,1018.73
2022-12-17T06:22:06.434Z,1018.74
2022-12-17T06:23:06.438Z,1018.78
2022-12-17T06:24:06.432Z,1018.78
2022-12-17T06:25:06.439Z,1018.81
2022-12-17T06:26:06.460Z,1018.84
2022-12-17T06:27:06.430Z,1018.85
2022-12-17T06:28:06.437Z,1018.85
2022-12-17T06:29:06.437Z,1018.88
2022-12-17T06:30:06.429Z,1018.87
2022-12-17T06:31:06.505Z,1018.84
2022-12-17T06:32:06.428Z,1018.88
2022-12-17T06:33:06.434Z,1018.89
2022-12-17T06:34:06.434Z,1018.85
2022-12-17T06:35:06.433Z,1018.81
2022-12-17T06:36:06.426Z,1018.79
2022-12-17T06:37:06.424Z,1018.82
2022-12-17T06:38:06.433Z,1018.79
2022-12-17T06:39:06.421Z,1018.83
2022-12-17T06:40:06.430Z,1018.86
2022-12-17T06:41:06.421Z,1018.87
2022-12-17T06:42:06.444Z,1018.87
2022-12-17T06:43:06.426Z,1018.86
2022-12-17T06:44:06.418Z,1018.86
2022-12-17T06:45:06.418Z,1018.89
2022-12-17T06:46:06.420Z,1018.91
2022-12-17T06:47:06.495Z,1018.98
2022-12-17T06:48:06.426Z,1018.98
2022-12-17T06:49:06.418Z,1019.02
2022-12-17T06:50:06.425Z,1019.02
2022-12-17T06:51:06.436Z,1019.02
2022-12-17T06:52:06.415Z,1019.07
2022-12-17T06:53:06.415Z,1019.07
2022-12-17T06:54:06.413Z,1019.13
2022-12-17T06:55:06.422Z,1019.11
2022-12-17T06:56:06.413Z,1019.16
2022-12-17T06:57:06.419Z,1019.17
2022-12-17T06:58:06.432Z,1019.22
2022-12-17T06:59:06.409Z,1019.23
2022-12-17T07:00:06.411Z,1019.23
2022-12-17T07:01:06.437Z,1019.26
2022-12-17T07:02:06.535Z,1019.30
2022-12-17T07:03:11.549Z,1019.29
2022-12-17T07:04:06.409Z,1019.35
2022-12-17T07:05:06.417Z,1019.34
2022-12-17T07:06:06.409Z,1019.37
2022-12-17T07:07:06.415Z,1019.33
2022-12-17T07:08:06.405Z,1019.34
2022-12-17T07:09:06.415Z,1019.34
2022-12-17T07:10:12.109Z,1019.36
2022-12-17T07:11:06.412Z,1019.39
2022-12-17T07:12:06.486Z,1019.41
2022-12-17T07:13:06.404Z,1019.39
2022-12-17T07:14:06.435Z,1019.45
2022-12-17T07:15:06.404Z,1019.46
2022-12-17T07:16:06.499Z,1019.46
2022-12-17T07:17:06.411Z,1019.54
2022-12-17T07:18:06.399Z,1019.54
2022-12-17T07:19:06.403Z,1019.55
2022-12-17T07:20:06.405Z,1019.57
2022-12-17T07:21:06.400Z,1019.61
2022-12-17T07:22:06.405Z,1019.62
2022-12-17T07:23:06.397Z,1019.64
2022-12-17T07:24:06.401Z,1019.63
2022-12-17T07:25:06.403Z,1019.67
2022-12-17T07:26:06.402Z,1019.69
2022-12-17T07:27:06.400Z,1019.70
2022-12-17T07:28:06.392Z,1019.71
2022-12-17T07:29:06.399Z,1019.70
2022-12-17T07:30:06.411Z,1019.74
2022-12-17T07:31:06.390Z,1019.71
2022-12-17T07:32:06.454Z,1019.73
2022-12-17T07:33:06.397Z,1019.71
2022-12-17T07:34:06.390Z,1019.72
2022-12-17T07:35:06.396Z,1019.73
2022-12-17T07:36:06.393Z,1019.71
2022-12-17T07:37:06.394Z,1019.72
2022-12-17T07:38:06.386Z,1019.76
2022-12-17T07:39:06.382Z,1019.77
2022-12-17T07:40:06.414Z,1019.74
2022-12-17T07:41:06.383Z,1019.73
2022-12-17T07:42:06.382Z,1019.73
2022-12-17T07:43:06.391Z,1019.79
2022-12-17T07:44:06.390Z,1019.72
2022-12-17T07:45:06.404Z,1019.76
2022-12-17T07:46:06.559Z,1019.78
2022-12-17T07:47:06.388Z,1019.83
2022-12-17T07:48:06.387Z,1019.86
2022-12-17T07:49:06.386Z,1019.86
2022-12-17T07:50:06.382Z,1019.86
2022-12-17T07:51:06.385Z,1019.87
2022-12-17T07:52:06.386Z,1019.86
2022-12-17T07:53:06.375Z,1019.90
2022-12-17T07:54:06.383Z,1019.92
2022-12-17T07:55:06.374Z,1019.90
2022-12-17T07:56:06.377Z,1019.92
2022-12-17T07:57:06.536Z,1019.93
2022-12-17T07:58:06.377Z,1019.97
2022-12-17T07:59:06.373Z,1019.91
2022-12-17T08:00:06.378Z,1019.98
2022-12-17T08:01:06.445Z,1019.98
2022-12-17T08:02:06.516Z,1020.01
2022-12-17T08:03:06.446Z,1020.02
2022-12-17T08:04:06.368Z,1019.99
2022-12-17T08:05:06.370Z,1020.03
2022-12-17T08:06:06.368Z,1020.07
2022-12-17T08:07:10.274Z,1020.06
2022-12-17T08:08:06.374Z,1020.11
2022-12-17T08:09:06.369Z,1020.09
2022-12-17T08:10:06.366Z,1020.13
2022-12-17T08:11:06.366Z,1020.10
2022-12-17T08:12:06.393Z,1020.12
2022-12-17T08:13:10.912Z,1020.16
2022-12-17T08:14:06.381Z,1020.17
2022-12-17T08:15:06.362Z,1020.15
2022-12-17T08:16:06.390Z,1020.17
2022-12-17T08:17:06.434Z,1020.14
2022-12-17T08:18:06.388Z,1020.15
2022-12-17T08:19:06.369Z,1020.18
2022-12-17T08:20:06.364Z,1020.19
2022-12-17T08:21:06.364Z,1020.19
2022-12-17T08:22:06.365Z,1020.22
2022-12-17T08:23:06.359Z,1020.24
2022-12-17T08:24:06.367Z,1020.23
2022-12-17T08:25:06.358Z,1020.24
2022-12-17T08:26:06.354Z,1020.29
2022-12-17T08:27:06.355Z,1020.30
2022-12-17T08:28:11.079Z,1020.31
2022-12-17T08:29:06.358Z,1020.35
2022-12-17T08:30:06.359Z,1020.36
2022-12-17T08:31:06.408Z,1020.35
2022-12-17T08:32:06.350Z,1020.37
2022-12-17T08:33:06.350Z,1020.41
2022-12-17T08:34:08.249Z,1020.38
2022-12-17T08:35:06.348Z,1020.40
2022-12-17T08:36:06.348Z,1020.37
2022-12-17T08:37:06.347Z,1020.40
2022-12-17T08:38:06.349Z,1020.41
2022-12-17T08:39:06.345Z,1020.40
2022-12-17T08:40:06.352Z,1020.42
2022-12-17T08:41:06.351Z,1020.46
2022-12-17T08:42:06.352Z,1020.49
2022-12-17T08:43:06.343Z,1020.53
2022-12-17T08:44:06.350Z,1020.53
2022-12-17T08:45:06.349Z,1020.51
2022-12-17T08:46:06.479Z,1020.55
2022-12-17T08:47:06.348Z,1020.60
2022-12-17T08:48:06.339Z,1020.62
2022-12-17T08:49:06.348Z,1020.65
2022-12-17T08:50:06.372Z,1020.69
2022-12-17T08:51:06.339Z,1020.69
2022-12-17T08:52:06.338Z,1020.69
2022-12-17T08:53:06.345Z,1020.73
2022-12-17T08:54:06.336Z,1020.74
2022-12-17T08:55:06.336Z,1020.76
2022-12-17T08:56:06.334Z,1020.77
2022-12-17T08:57:06.334Z,1020.75
2022-12-17T08:58:06.353Z,1020.76
2022-12-17T08:59:06.339Z,1020.80
2022-12-17T09:00:06.339Z,1020.80
2022-12-17T09:01:06.419Z,1020.79
2022-12-17T09:02:06.625Z,1020.82
2022-12-17T09:03:06.436Z,1020.80
2022-12-17T09:04:06.338Z,1020.81
2022-12-17T09:05:06.344Z,1020.81
2022-12-17T09:06:06.354Z,1020.82
2022-12-17T09:07:06.329Z,1020.82
2022-12-17T09:08:06.342Z,1020.86
2022-12-17T09:09:06.327Z,1020.85
2022-12-17T09:10:06.326Z,1020.84
2022-12-17T09:11:06.327Z,1020.82
2022-12-17T09:12:06.326Z,1020.81
2022-12-17T09:13:06.331Z,1020.85
2022-12-17T09:14:06.336Z,1020.85
2022-12-17T09:15:06.334Z,1020.86
2022-12-17T09:16:06.329Z,1020.86
2022-12-17T09:17:06.470Z,1020.89
2022-12-17T09:18:06.322Z,1020.90
2022-12-17T09:19:06.319Z,1020.87
2022-12-17T09:20:06.330Z,1020.89
2022-12-17T09:21:06.328Z,1020.91
2022-12-17T09:22:06.349Z,1020.93
2022-12-17T09:23:06.318Z,1020.89
2022-12-17T09:24:06.328Z,1020.86
2022-12-17T09:25:06.316Z,1020.89
2022-12-17T09:26:06.324Z,1020.89
2022-12-17T09:27:06.318Z,1020.88
2022-12-17T09:28:06.325Z,1020.90
2022-12-17T09:29:06.390Z,1020.88
2022-12-17T09:30:06.324Z,1020.94
2022-12-17T09:31:06.360Z,1020.89
2022-12-17T09:32:06.319Z,1020.88
2022-12-17T09:33:06.317Z,1020.90
2022-12-17T09:34:06.319Z,1020.89
2022-12-17T09:35:06.328Z,1020.93
2022-12-17T09:36:06.317Z,1020.93
2022-12-17T09:37:06.320Z,1020.96
2022-12-17T09:38:06.342Z,1020.96
2022-12-17T09:39:06.460Z,1020.95
2022-12-17T09:40:06.311Z,1020.98
2022-12-17T09:41:06.312Z,1021.02
2022-12-17T09:42:06.317Z,1021.00
2022-12-17T09:43:06.318Z,1021.03
2022-12-17T09:44:06.315Z,1021.01
2022-12-17T09:45:06.313Z,1021.02
2022-12-17T09:46:06.401Z,1021.05
2022-12-17T09:47:06.305Z,1021.05
2022-12-17T09:48:06.309Z,1021.10
2022-12-17T09:49:06.315Z,1021.09
2022-12-17T09:50:06.312Z,1021.09
2022-12-17T09:51:06.304Z,1021.09
2022-12-17T09:52:06.312Z,1021.08
2022-12-17T09:53:06.305Z,1021.12
2022-12-17T09:54:06.327Z,1021.12
2022-12-17T09:55:06.304Z,1021.11
2022-12-17T09:56:06.307Z,1021.09
2022-12-17T09:57:06.310Z,1021.14
2022-12-17T09:58:06.312Z,1021.15
2022-12-17T09:59:06.309Z,1021.17
2022-12-17T10:00:06.315Z,1021.17
2022-12-17T10:01:06.371Z,1021.17
2022-12-17T10:02:06.624Z,1021.19
2022-12-17T10:03:06.497Z,1021.24
2022-12-17T10:04:06.312Z,1021.22
2022-12-17T10:05:06.310Z,1021.23
2022-12-17T10:06:06.311Z,1021.23
2022-12-17T10:07:06.299Z,1021.20
2022-12-17T10:08:06.301Z,1021.20
2022-12-17T10:09:06.300Z,1021.21
2022-12-17T10:10:06.327Z,1021.22
2022-12-17T10:11:06.298Z,1021.22
2022-12-17T10:12:06.304Z,1021.25
2022-12-17T10:13:06.305Z,1021.26
2022-12-17T10:14:06.305Z,1021.23
2022-12-17T10:15:06.309Z,1021.30
2022-12-17T10:16:06.399Z,1021.29
2022-12-17T10:17:11.602Z,1021.27
2022-12-17T10:18:06.305Z,1021.28
2022-12-17T10:19:06.296Z,1021.27
2022-12-17T10:20:06.304Z,1021.28
2022-12-17T10:21:06.317Z,1021.30
2022-12-17T10:22:06.308Z,1021.26
2022-12-17T10:23:06.305Z,1021.26
2022-12-17T10:24:06.304Z,1021.27
2022-12-17T10:25:06.292Z,1021.23
2022-12-17T10:26:06.325Z,1021.24
2022-12-17T10:27:06.300Z,1021.28
2022-12-17T10:28:06.291Z,1021.31
2022-12-17T10:29:06.300Z,1021.33
2022-12-17T10:30:06.300Z,1021.33
2022-12-17T10:31:06.349Z,1021.31
2022-12-17T10:32:06.289Z,1021.34
2022-12-17T10:33:06.297Z,1021.33
2022-12-17T10:34:06.295Z,1021.28
2022-12-17T10:35:06.297Z,1021.31
2022-12-17T10:36:06.289Z,1021.30
2022-12-17T10:37:06.296Z,1021.29
2022-12-17T10:38:06.295Z,1021.29
2022-12-17T10:39:06.291Z,1021.30
2022-12-17T10:40:06.296Z,1021.30
2022-12-17T10:41:06.294Z,1021.32
2022-12-17T10:42:06.305Z,1021.32
2022-12-17T10:43:06.292Z,1021.29
2022-12-17T10:44:06.291Z,1021.32
2022-12-17T10:45:06.292Z,1021.29
2022-12-17T10:46:06.343Z,1021.28
2022-12-17T10:47:06.289Z,1021.26
2022-12-17T10:48:06.290Z,1021.28
2022-12-17T10:49:11.263Z,1021.33
2022-12-17T10:50:06.280Z,1021.29
2022-12-17T10:51:06.279Z,1021.34
2022-12-17T10:52:06.288Z,1021.35
2022-12-17T10:53:06.286Z,1021.34
2022-12-17T10:54:06.280Z,1021.37
2022-12-17T10:55:06.286Z,1021.35
2022-12-17T10:56:06.282Z,1021.39
2022-12-17T10:57:06.284Z,1021.42
2022-12-17T10:58:06.354Z,1021.38
2022-12-17T10:59:06.284Z,1021.42
2022-12-17T11:00:06.277Z,1021.40
2022-12-17T11:01:06.277Z,1021.40
2022-12-17T11:02:06.450Z,1021.39
2022-12-17T11:03:06.401Z,1021.39
2022-12-17T11:04:06.274Z,1021.35
2022-12-17T11:05:06.281Z,1021.35
2022-12-17T11:06:06.273Z,1021.33
2022-12-17T11:07:06.277Z,1021.32
2022-12-17T11:08:06.286Z,1021.36
2022-12-17T11:09:06.273Z,1021.32
2022-12-17T11:10:09.455Z,1021.36
2022-12-17T11:11:06.282Z,1021.40
2022-12-17T11:12:07.580Z,1021.41
2022-12-17T11:13:06.276Z,1021.42
2022-12-17T11:14:06.356Z,1021.43
2022-12-17T11:15:06.271Z,1021.39
2022-12-17T11:16:06.290Z,1021.42
2022-12-17T11:17:06.272Z,1021.41
2022-12-17T11:18:11.140Z,1021.39
2022-12-17T11:19:06.272Z,1021.43
2022-12-17T11:20:06.272Z,1021.40
2022-12-17T11:21:06.282Z,1021.41
2022-12-17T11:22:06.278Z,1021.41
2022-12-17T11:23:06.267Z,1021.45
2022-12-17T11:24:06.268Z,1021.45
2022-12-17T11:25:06.269Z,1021.46
2022-12-17T11:26:06.268Z,1021.48
2022-12-17T11:27:06.267Z,1021.45
2022-12-17T11:28:06.278Z,1021.46
2022-12-17T11:29:06.278Z,1021.45
2022-12-17T11:30:06.298Z,1021.44
2022-12-17T11:31:06.316Z,1021.48
2022-12-17T11:32:06.268Z,1021.46
2022-12-17T11:33:06.275Z,1021.47
2022-12-17T11:34:06.266Z,1021.45
2022-12-17T11:35:06.266Z,1021.44
2022-12-17T11:36:06.274Z,1021.45
2022-12-17T11:37:06.277Z,1021.49
2022-12-17T11:38:06.270Z,1021.45
2022-12-17T11:39:06.273Z,1021.48
2022-12-17T11:40:06.268Z,1021.51
2022-12-17T11:41:06.274Z,1021.48
2022-12-17T11:42:11.071Z,1021.51
2022-12-17T11:43:06.277Z,1021.46
2022-12-17T11:44:06.272Z,1021.49
2022-12-17T11:45:06.268Z,1021.52
2022-12-17T11:46:06.416Z,1021.49
2022-12-17T11:47:06.273Z,1021.47
2022-12-17T11:48:06.271Z,1021.53
2022-12-17T11:49:06.272Z,1021.50
2022-12-17T11:50:06.267Z,1021.55
2022-12-17T11:51:06.267Z,1021.54
2022-12-17T11:52:06.273Z,1021.51
2022-12-17T11:53:06.271Z,1021.55
2022-12-17T11:54:06.274Z,1021.47
2022-12-17T11:55:06.271Z,1021.45
2022-12-17T11:56:06.275Z,1021.55
2022-12-17T11:57:06.275Z,1021.49
2022-12-17T11:58:06.274Z,1021.49
2022-12-17T11:59:06.272Z,1021.53
2022-12-17T12:00:06.266Z,1021.56
2022-12-17T12:01:06.268Z,1021.57
2022-12-17T12:02:06.288Z,1021.59
2022-12-17T12:03:06.454Z,1021.60
2022-12-17T12:04:06.304Z,1021.60
2022-12-17T12:05:06.277Z,1021.56